Terminal Aerodrome Forecast
Issued by NWS

Home | Current Version | Previous Version | Text Only | Print | Product List | Glossary On
Versions: 1 2 3 4 5 6 7 8 9 10 11 12 13 14 15 16 17 18 19 20 21 22 23 24 25 26 27 28
358
FTUS46 KMTR 241120
TAFSFO
TAF
KSFO 241120Z 2412/2518 25008KT P6SM OVC016
     FM241700 24006KT P6SM SCT018 SCT050 BKN150
      TEMPO 2417/2418 BKN018
     FM242100 27014G19KT P6SM SCT020 BKN050 BKN100
     FM250300 25008KT P6SM VCSH SCT030 BKN100
     FM250600 22006KT P6SM VCSH BKN030 OVC080
     FM251500 20005KT P6SM VCSH SCT035 BKN040 BKN060=

USA.gov is the U.S. government's official web portal to all federal, state and local government web resources and services.